createdAt,value
2023-04-15T00:04:28.293Z,95552.16
2023-04-15T00:12:52.575Z,95515.44
2023-04-15T00:21:15.454Z,95500.39
2023-04-15T00:29:38.318Z,95478.70
2023-04-15T00:38:01.548Z,95451.97
2023-04-15T00:46:27.105Z,95408.17
2023-04-15T00:54:51.342Z,95374.30
2023-04-15T01:03:15.662Z,95367.20
2023-04-15T01:11:40.019Z,95352.56
2023-04-15T01:20:05.471Z,95337.00
2023-04-15T01:28:28.560Z,95325.25
2023-04-15T01:36:51.932Z,95300.85
2023-04-15T01:45:18.348Z,95270.00
2023-04-15T01:53:41.545Z,95240.89
2023-04-15T02:02:05.499Z,95230.45
2023-04-15T02:10:28.535Z,95229.73
2023-04-15T02:18:52.261Z,95216.07
2023-04-15T02:27:18.746Z,95215.13
2023-04-15T02:35:44.270Z,95213.00
2023-04-15T02:44:11.364Z,95216.05
2023-04-15T02:52:35.089Z,95220.65
2023-04-15T03:00:58.158Z,95221.57
2023-04-15T03:09:21.651Z,95219.16
2023-04-15T03:17:44.676Z,95227.63
2023-04-15T03:26:07.786Z,95237.93
2023-04-15T03:34:30.769Z,95246.95
2023-04-15T03:42:54.900Z,95253.17
2023-04-15T03:51:17.837Z,95263.53
2023-04-15T03:59:41.195Z,95273.77
2023-04-15T04:08:04.122Z,95277.21
2023-04-15T04:16:27.071Z,95292.88
2023-04-15T04:24:50.801Z,95308.27
2023-04-15T04:33:13.693Z,95322.71
2023-04-15T04:41:36.567Z,95327.80
2023-04-15T04:49:59.441Z,95331.87
2023-04-15T04:58:22.434Z,95331.94
2023-04-15T05:06:45.336Z,95336.91
2023-04-15T05:15:09.161Z,95340.89
2023-04-15T05:23:32.275Z,95353.70
2023-04-15T05:31:55.972Z,95359.93
2023-04-15T05:40:19.532Z,95376.74
2023-04-15T05:48:42.469Z,95390.50
2023-04-15T05:57:05.385Z,95393.65
2023-04-15T06:05:28.306Z,95401.39
2023-04-15T06:13:51.196Z,95404.38
2023-04-15T06:22:14.076Z,95415.55
2023-04-15T06:30:37.002Z,95423.94
2023-04-15T06:38:59.985Z,95429.55
2023-04-15T06:47:23.289Z,95442.77
2023-04-15T06:55:46.449Z,95458.45
2023-04-15T07:04:09.702Z,95460.50
2023-04-15T07:12:32.738Z,95466.91
2023-04-15T07:20:56.189Z,95489.55
2023-04-15T07:29:19.040Z,95509.73
2023-04-15T07:37:43.390Z,95529.77
2023-04-15T07:46:07.008Z,95557.96
2023-04-15T07:54:29.890Z,95581.67
2023-04-15T08:02:54.155Z,95587.98
2023-04-15T08:11:17.139Z,95589.87
2023-04-15T08:19:40.833Z,95617.53
2023-04-15T08:28:07.404Z,95660.41
2023-04-15T08:36:32.729Z,95673.48
2023-04-15T08:44:56.390Z,95694.05
2023-04-15T08:53:19.347Z,95712.89
2023-04-15T09:01:42.321Z,95736.45
2023-04-15T09:10:06.750Z,95791.92
2023-04-15T09:18:34.994Z,95826.96
2023-04-15T09:26:58.677Z,95887.70
2023-04-15T09:35:23.708Z,95984.17
2023-04-15T09:43:46.545Z,96027.41
2023-04-15T09:52:09.372Z,96050.08
2023-04-15T10:00:33.513Z,96028.53
2023-04-15T10:08:58.904Z,96013.88
2023-04-15T10:17:23.895Z,96017.64
2023-04-15T10:25:47.265Z,96019.70
2023-04-15T10:34:11.343Z,96031.85
2023-04-15T10:42:38.170Z,96061.45
2023-04-15T10:51:05.315Z,96133.56
2023-04-15T10:59:32.034Z,96192.96
2023-04-15T11:07:56.279Z,96217.30
2023-04-15T11:16:19.203Z,96313.22
2023-04-15T11:24:52.118Z,96366.73
2023-04-15T11:33:15.080Z,96407.21
2023-04-15T11:41:37.988Z,96499.80
2023-04-15T11:50:23.762Z,96603.06
2023-04-15T11:58:47.488Z,96686.29
2023-04-15T12:07:10.865Z,96730.67
2023-04-15T12:15:33.909Z,96724.38
2023-04-15T12:23:58.308Z,96745.32
2023-04-15T12:32:21.623Z,96797.24
2023-04-15T12:40:47.412Z,96869.41
2023-04-15T12:49:10.335Z,96867.20
2023-04-15T12:57:33.269Z,96872.09
2023-04-15T13:05:57.868Z,96889.88
2023-04-15T13:14:20.972Z,96879.14
2023-04-15T13:22:43.779Z,96830.92
2023-04-15T13:31:06.632Z,96867.73
2023-04-15T13:39:29.481Z,96995.92
2023-04-15T13:47:52.992Z,97010.48
2023-04-15T13:56:16.145Z,96943.14
2023-04-15T14:04:39.244Z,96905.80
2023-04-15T14:13:02.062Z,96881.61
2023-04-15T14:21:26.324Z,96892.36
2023-04-15T14:29:49.236Z,96833.11
2023-04-15T14:38:12.313Z,96804.75
2023-04-15T14:46:35.993Z,96890.84
2023-04-15T14:54:59.096Z,96830.70
2023-04-15T15:03:22.139Z,96679.89
2023-04-15T15:11:45.511Z,96700.27
2023-04-15T15:20:08.884Z,96769.57
2023-04-15T15:28:31.817Z,96797.39
2023-04-15T15:36:56.055Z,96826.73
2023-04-15T15:45:18.996Z,96841.14
2023-04-15T15:53:41.905Z,96818.41
2023-04-15T16:02:06.059Z,96759.23
2023-04-15T16:10:29.201Z,96708.84
2023-04-15T16:18:52.112Z,96631.89
2023-04-15T16:27:16.417Z,96529.78
2023-04-15T16:35:39.356Z,96421.02
2023-04-15T16:44:03.286Z,96310.99
2023-04-15T16:52:26.348Z,96226.73
2023-04-15T17:00:50.889Z,96146.88
2023-04-15T17:09:13.763Z,96036.73
2023-04-15T17:17:36.867Z,95935.45
2023-04-15T17:25:59.854Z,95866.34
2023-04-15T17:34:22.789Z,95822.09
2023-04-15T17:42:45.684Z,95782.98
2023-04-15T17:51:08.791Z,95752.59
2023-04-15T17:59:33.791Z,95718.88
2023-04-15T18:07:57.110Z,95668.11
2023-04-15T18:16:20.125Z,95619.14
2023-04-15T18:24:43.560Z,95569.95
2023-04-15T18:33:06.529Z,95524.27
2023-04-15T18:41:29.805Z,95455.50
2023-04-15T18:49:52.698Z,95408.45
2023-04-15T18:58:15.969Z,95391.29
2023-04-15T19:06:39.153Z,95387.55
2023-04-15T19:15:02.861Z,95381.98
2023-04-15T19:23:26.224Z,95380.09
2023-04-15T19:31:49.361Z,95360.65
2023-04-15T19:40:12.848Z,95341.80
2023-04-15T19:48:36.928Z,95341.15
2023-04-15T19:57:00.023Z,95349.54
2023-04-15T20:05:23.529Z,95339.63
2023-04-15T20:13:46.449Z,95338.91
2023-04-15T20:22:09.378Z,95333.94
2023-04-15T20:30:32.381Z,95313.86
2023-04-15T20:38:55.214Z,95311.59
2023-04-15T20:47:18.465Z,95309.73
2023-04-15T20:55:43.548Z,95287.23
2023-04-15T21:04:06.420Z,95278.20
2023-04-15T21:12:29.385Z,95283.88
2023-04-15T21:20:59.379Z,95278.25
2023-04-15T21:29:22.294Z,95268.61
2023-04-15T21:37:45.252Z,95254.62
2023-04-15T21:46:22.477Z,95227.20
2023-04-15T21:54:47.956Z,95210.20
2023-04-15T22:03:11.234Z,95194.48
2023-04-15T22:11:34.392Z,95188.14
2023-04-15T22:19:57.238Z,95185.08
2023-04-15T22:28:20.344Z,95157.82
2023-04-15T22:36:43.264Z,95147.62
2023-04-15T22:45:07.128Z,95142.71
2023-04-15T22:53:30.024Z,95143.48
2023-04-15T23:01:53.731Z,95129.30
2023-04-15T23:10:16.750Z,95119.47
2023-04-15T23:18:39.653Z,95120.07
2023-04-15T23:27:02.541Z,95105.78
2023-04-15T23:35:26.457Z,95087.20
2023-04-15T23:43:49.908Z,95087.23
2023-04-15T23:52:12.754Z,95092.41
